createdAt,value
2019-05-12T00:02:14.276Z,9.63
2019-05-12T00:04:40.350Z,10.43
2019-05-12T00:07:08.717Z,11.27
2019-05-12T00:09:34.895Z,10.53
2019-05-12T00:12:00.986Z,10.90
2019-05-12T00:14:28.229Z,11.37
2019-05-12T00:16:54.694Z,10.13
2019-05-12T00:19:20.787Z,11.60
2019-05-12T00:21:48.308Z,11.97
2019-05-12T00:24:15.053Z,11.80
2019-05-12T00:26:41.487Z,11.27
2019-05-12T00:29:07.810Z,11.07
2019-05-12T00:31:34.113Z,11.57
2019-05-12T00:34:00.240Z,11.87
2019-05-12T00:36:26.377Z,13.43
2019-05-12T00:38:52.445Z,12.97
2019-05-12T00:41:18.515Z,12.50
2019-05-12T00:43:44.742Z,13.50
2019-05-12T00:46:11.182Z,12.93
2019-05-12T00:48:37.620Z,13.53
2019-05-12T00:51:03.812Z,13.57
2019-05-12T00:53:39.686Z,12.73
2019-05-12T00:55:58.049Z,13.00
2019-05-12T00:58:24.259Z,12.70
2019-05-12T01:00:50.496Z,14.93
2019-05-12T01:03:18.674Z,15.00
2019-05-12T01:05:44.666Z,16.63
2019-05-12T01:08:10.813Z,16.60
2019-05-12T01:10:38.847Z,13.47
2019-05-12T01:13:05.372Z,14.70
2019-05-12T01:15:31.498Z,17.57
2019-05-12T01:17:58.526Z,16.67
2019-05-12T01:20:24.969Z,17.27
2019-05-12T01:22:51.121Z,16.23
2019-05-12T01:25:17.687Z,16.00
2019-05-12T01:27:43.906Z,15.90
2019-05-12T01:30:10.431Z,17.07
2019-05-12T01:32:38.484Z,16.50
2019-05-12T01:35:08.103Z,17.73
2019-05-12T01:37:34.489Z,18.07
2019-05-12T01:40:00.560Z,19.30
2019-05-12T01:42:28.718Z,19.50
2019-05-12T01:44:54.653Z,21.47
2019-05-12T01:47:20.766Z,20.13
2019-05-12T01:49:48.762Z,18.00
2019-05-12T01:52:14.958Z,18.13
2019-05-12T01:54:41.018Z,17.97
2019-05-12T01:57:08.087Z,18.17
2019-05-12T01:59:34.420Z,23.60
2019-05-12T02:02:00.493Z,22.07
2019-05-12T02:04:28.695Z,21.00
2019-05-12T02:06:54.985Z,20.87
2019-05-12T02:09:23.032Z,20.00
2019-05-12T02:11:50.004Z,21.57
2019-05-12T02:14:18.125Z,21.63
2019-05-12T02:16:44.261Z,20.17
2019-05-12T02:19:10.350Z,21.50
2019-05-12T02:21:38.240Z,20.47
2019-05-12T02:24:04.499Z,21.60
2019-05-12T02:26:30.698Z,21.27
2019-05-12T02:28:58.553Z,23.07
2019-05-12T02:31:24.929Z,23.97
2019-05-12T02:33:51.054Z,25.83
2019-05-12T02:36:17.101Z,27.67
2019-05-12T02:38:45.282Z,24.90
2019-05-12T02:41:11.291Z,25.10
2019-05-12T02:43:39.447Z,28.07
2019-05-12T02:46:05.567Z,26.37
2019-05-12T02:48:31.675Z,28.03
2019-05-12T02:50:58.096Z,25.50
2019-05-12T02:53:25.160Z,29.03
2019-05-12T02:55:54.202Z,27.77
2019-05-12T02:58:25.385Z,27.63
2019-05-12T03:00:54.780Z,27.77
2019-05-12T03:03:20.269Z,29.53
2019-05-12T03:05:46.736Z,30.37
2019-05-12T03:08:15.351Z,30.47
2019-05-12T03:10:44.703Z,30.87
2019-05-12T03:13:09.050Z,29.57
2019-05-12T03:15:37.447Z,27.60
2019-05-12T03:18:06.179Z,27.13
2019-05-12T03:20:34.651Z,29.00
2019-05-12T03:22:59.266Z,28.53
2019-05-12T03:25:29.881Z,28.10
2019-05-12T03:27:54.514Z,25.10
2019-05-12T03:30:20.979Z,28.33
2019-05-12T03:32:47.852Z,29.47
2019-05-12T03:35:17.551Z,28.43
2019-05-12T03:37:45.261Z,27.13
2019-05-12T03:40:14.197Z,28.47
2019-05-12T03:42:39.194Z,28.03
2019-05-12T03:45:05.617Z,26.77
2019-05-12T03:47:31.713Z,28.10
2019-05-12T03:49:57.903Z,27.47
2019-05-12T03:52:24.513Z,27.17
2019-05-12T03:54:50.890Z,26.43
2019-05-12T03:57:16.966Z,23.93
2019-05-12T03:59:44.936Z,27.03
2019-05-12T04:02:11.048Z,28.23
2019-05-12T04:04:37.128Z,27.00
2019-05-12T04:07:05.126Z,28.93
2019-05-12T04:09:34.648Z,27.37
2019-05-12T04:11:59.219Z,27.13
2019-05-12T04:14:25.517Z,25.27
2019-05-12T04:16:51.669Z,27.33
2019-05-12T04:19:19.721Z,25.83
2019-05-12T04:21:45.909Z,26.00
2019-05-12T04:24:14.301Z,25.17
2019-05-12T04:26:40.137Z,26.00
2019-05-12T04:29:06.226Z,26.57
2019-05-12T04:31:34.867Z,24.00
2019-05-12T04:34:01.121Z,24.97
2019-05-12T04:36:27.682Z,23.47
2019-05-12T04:38:55.654Z,23.50
2019-05-12T04:41:25.626Z,23.30
2019-05-12T04:43:49.759Z,21.80
2019-05-12T04:46:16.005Z,22.47
2019-05-12T04:48:45.004Z,24.83
2019-05-12T04:51:10.156Z,25.17
2019-05-12T04:53:36.231Z,25.70
2019-05-12T04:56:10.751Z,23.30
2019-05-12T04:58:30.387Z,25.13
2019-05-12T05:00:56.445Z,23.33
2019-05-12T05:03:24.749Z,23.70
2019-05-12T05:05:50.472Z,23.70
2019-05-12T05:08:19.662Z,23.30
2019-05-12T05:10:44.586Z,24.73
2019-05-12T05:13:10.732Z,23.60
2019-05-12T05:15:36.799Z,22.10
2019-05-12T05:18:06.288Z,21.30
2019-05-12T05:20:31.005Z,22.23
2019-05-12T05:22:57.135Z,21.67
2019-05-12T05:25:23.736Z,23.93
2019-05-12T05:27:49.993Z,22.90
2019-05-12T05:30:16.179Z,23.17
2019-05-12T05:32:44.263Z,21.20
2019-05-12T05:35:10.612Z,22.03
2019-05-12T05:37:41.311Z,21.67
2019-05-12T05:40:05.180Z,21.23
2019-05-12T05:42:33.388Z,19.90
2019-05-12T05:44:59.254Z,19.33
2019-05-12T05:47:28.796Z,19.70
2019-05-12T05:49:55.015Z,20.07
2019-05-12T05:52:24.545Z,20.03
2019-05-12T05:54:49.077Z,19.67
2019-05-12T05:57:15.168Z,19.97
2019-05-12T05:59:41.263Z,21.40
2019-05-12T06:02:07.640Z,20.20
2019-05-12T06:04:34.283Z,18.77
2019-05-12T06:07:00.503Z,19.93
2019-05-12T06:09:26.595Z,18.10
2019-05-12T06:11:54.161Z,19.57
2019-05-12T06:14:20.438Z,19.13
2019-05-12T06:16:46.547Z,20.27
2019-05-12T06:19:14.098Z,19.30
2019-05-12T06:21:40.352Z,18.87
2019-05-12T06:24:08.617Z,18.10
2019-05-12T06:26:35.782Z,18.57
2019-05-12T06:29:04.220Z,17.10
2019-05-12T06:31:33.377Z,19.37
2019-05-12T06:33:59.530Z,19.00
2019-05-12T06:36:27.314Z,18.33
2019-05-12T06:38:54.205Z,17.77
2019-05-12T06:41:23.656Z,18.23
2019-05-12T06:43:49.998Z,15.37
2019-05-12T06:46:20.655Z,17.00
2019-05-12T06:48:45.546Z,16.27
2019-05-12T06:51:17.013Z,16.83
2019-05-12T06:53:40.127Z,17.00
2019-05-12T06:56:09.368Z,15.40
2019-05-12T06:58:34.545Z,14.67
2019-05-12T07:01:04.423Z,14.60
2019-05-12T07:03:30.835Z,14.47
2019-05-12T07:05:57.308Z,14.87
2019-05-12T07:08:27.417Z,16.20
2019-05-12T07:11:01.565Z,15.03
2019-05-12T07:13:23.352Z,14.83
2019-05-12T07:15:48.147Z,15.00
2019-05-12T07:18:17.762Z,14.27
2019-05-12T07:20:44.343Z,13.30
2019-05-12T07:23:11.086Z,14.67
2019-05-12T07:25:37.860Z,15.23
2019-05-12T07:28:07.653Z,12.97
2019-05-12T07:30:35.041Z,12.60
2019-05-12T07:33:01.456Z,13.73
2019-05-12T07:35:29.004Z,12.07
2019-05-12T07:37:57.089Z,11.97
2019-05-12T07:40:29.973Z,11.70
2019-05-12T07:42:54.724Z,11.15
2019-05-12T07:45:24.959Z,11.55
2019-05-12T07:47:49.347Z,9.05
2019-05-12T07:50:20.072Z,10.03
2019-05-12T07:52:44.322Z,10.00
2019-05-12T07:55:10.648Z,9.55
2019-05-12T07:57:51.707Z,9.20
2019-05-12T08:00:11.510Z,8.25
2019-05-12T08:02:37.126Z,8.05
2019-05-12T08:05:11.151Z,9.13
2019-05-12T08:07:34.897Z,8.98
2019-05-12T08:10:00.962Z,7.97
2019-05-12T08:12:27.146Z,8.43
2019-05-12T08:14:54.174Z,7.17
2019-05-12T08:17:20.574Z,7.45
2019-05-12T08:19:47.001Z,7.58
2019-05-12T08:22:13.650Z,7.03
2019-05-12T08:24:43.262Z,6.12
2019-05-12T08:27:08.213Z,5.65
2019-05-12T08:29:34.382Z,7.17
2019-05-12T08:32:00.602Z,6.92
2019-05-12T08:34:26.832Z,6.45
2019-05-12T08:36:57.863Z,6.35
2019-05-12T08:39:23.631Z,7.05
2019-05-12T08:41:50.463Z,7.70
2019-05-12T08:44:17.590Z,7.15
2019-05-12T08:46:51.970Z,6.85
2019-05-12T08:49:14.425Z,6.33
2019-05-12T08:51:41.359Z,6.40
2019-05-12T08:54:08.284Z,6.20
2019-05-12T08:56:34.707Z,6.05
2019-05-12T08:59:00.849Z,5.78
2019-05-12T09:01:30.791Z,4.53
2019-05-12T09:03:55.020Z,4.40
2019-05-12T09:06:21.311Z,3.87
2019-05-12T09:08:49.167Z,5.05
2019-05-12T09:11:15.865Z,4.10
2019-05-12T09:13:43.436Z,4.20
2019-05-12T09:16:09.856Z,3.83
2019-05-12T09:18:39.278Z,3.33
2019-05-12T09:21:04.314Z,3.30
2019-05-12T09:23:32.819Z,3.80
2019-05-12T09:25:59.120Z,3.62
2019-05-12T09:28:25.385Z,4.20
2019-05-12T09:30:51.643Z,4.20
2019-05-12T09:33:21.588Z,4.00
2019-05-12T09:35:45.883Z,4.78
2019-05-12T09:38:21.273Z,4.00
2019-05-12T09:40:39.924Z,3.62
2019-05-12T09:43:10.455Z,2.90
2019-05-12T09:45:34.477Z,3.10
2019-05-12T09:48:04.873Z,3.08
2019-05-12T09:50:28.605Z,2.92
2019-05-12T09:52:55.574Z,12.05
2019-05-12T09:55:24.763Z,8.03
2019-05-12T09:57:51.053Z,4.20
2019-05-12T10:00:18.062Z,3.55
2019-05-12T10:02:44.251Z,3.47
2019-05-12T10:05:10.855Z,3.45
2019-05-12T10:07:37.302Z,4.90
2019-05-12T10:10:05.343Z,3.70
2019-05-12T10:12:36.572Z,6.00
2019-05-12T10:15:00.375Z,5.05
2019-05-12T10:17:30.175Z,4.22
2019-05-12T10:19:58.072Z,3.77
2019-05-12T10:22:24.550Z,4.30
2019-05-12T10:24:55.933Z,4.33
2019-05-12T10:27:21.045Z,3.62
2019-05-12T10:29:46.669Z,4.10
2019-05-12T10:32:13.421Z,5.30
2019-05-12T10:34:40.468Z,4.25
2019-05-12T10:37:06.664Z,3.87
2019-05-12T10:39:33.494Z,4.12
2019-05-12T10:41:59.994Z,3.80
2019-05-12T10:44:29.927Z,3.75
2019-05-12T10:46:56.238Z,3.45
2019-05-12T10:49:23.358Z,2.87
2019-05-12T10:51:49.503Z,2.92
2019-05-12T10:54:15.916Z,2.83
2019-05-12T10:56:43.836Z,3.00
2019-05-12T10:59:10.105Z,3.55
2019-05-12T11:01:38.435Z,3.62
2019-05-12T11:04:04.418Z,3.70
2019-05-12T11:06:30.485Z,3.40
2019-05-12T11:08:56.645Z,3.85
2019-05-12T11:11:24.216Z,3.20
2019-05-12T11:13:50.390Z,3.77
2019-05-12T11:16:16.982Z,3.65
2019-05-12T11:18:43.681Z,2.98
2019-05-12T11:21:10.157Z,2.92
2019-05-12T11:23:36.266Z,3.02
2019-05-12T11:26:03.883Z,3.10
2019-05-12T11:28:30.583Z,3.95
2019-05-12T11:30:56.768Z,3.25
2019-05-12T11:33:23.824Z,3.90
2019-05-12T11:35:51.109Z,3.35
2019-05-12T11:38:18.329Z,3.15
2019-05-12T11:40:44.497Z,13.20
2019-05-12T11:43:10.718Z,4.97
2019-05-12T11:45:36.952Z,3.70
2019-05-12T11:48:10.116Z,3.25
2019-05-12T11:50:31.656Z,3.90
2019-05-12T11:52:57.757Z,2.75
2019-05-12T11:55:29.351Z,3.08
2019-05-12T11:57:54.343Z,3.42
2019-05-12T12:00:24.065Z,3.12
2019-05-12T12:02:50.398Z,3.17
2019-05-12T12:05:16.576Z,2.90
2019-05-12T12:07:50.659Z,3.77
2019-05-12T12:10:11.109Z,3.25
2019-05-12T12:12:39.529Z,2.65
2019-05-12T12:15:05.746Z,2.80
2019-05-12T12:17:35.091Z,3.20
2019-05-12T12:20:00.105Z,3.58
2019-05-12T12:22:29.696Z,3.30
2019-05-12T12:24:54.407Z,3.45
2019-05-12T12:27:20.546Z,3.12
2019-05-12T12:29:46.668Z,2.85
2019-05-12T12:32:18.541Z,2.85
2019-05-12T12:34:41.089Z,3.98
2019-05-12T12:37:07.282Z,3.72
2019-05-12T12:39:33.346Z,4.22
2019-05-12T12:42:00.721Z,4.58
2019-05-12T12:44:27.091Z,4.67
2019-05-12T12:47:08.814Z,4.15
2019-05-12T12:49:49.537Z,4.85
2019-05-12T12:52:16.552Z,4.53
2019-05-12T12:54:43.888Z,3.95
2019-05-12T12:57:10.239Z,3.37
2019-05-12T12:59:36.438Z,3.65
2019-05-12T13:02:06.809Z,4.67
2019-05-12T13:04:30.836Z,3.70
2019-05-12T13:06:56.981Z,4.22
2019-05-12T13:09:24.700Z,4.35
2019-05-12T13:11:53.587Z,4.80
2019-05-12T13:14:19.200Z,5.05
2019-05-12T13:16:49.462Z,4.20
2019-05-12T13:19:17.091Z,4.50
2019-05-12T13:21:43.791Z,5.90
2019-05-12T13:24:09.636Z,4.83
2019-05-12T13:26:35.811Z,4.53
2019-05-12T13:29:03.925Z,4.95
2019-05-12T13:31:29.848Z,4.25
2019-05-12T13:33:56.588Z,4.72
2019-05-12T13:36:24.183Z,3.72
2019-05-12T13:38:50.544Z,3.55
2019-05-12T13:41:19.972Z,3.08
2019-05-12T13:43:44.965Z,3.45
2019-05-12T13:46:11.174Z,4.03
2019-05-12T13:48:37.304Z,4.03
2019-05-12T13:51:08.436Z,3.50
2019-05-12T13:53:33.518Z,3.58
2019-05-12T13:55:59.674Z,4.05
2019-05-12T13:58:28.280Z,3.15
2019-05-12T14:01:10.461Z,3.12
2019-05-12T14:03:22.125Z,3.87
2019-05-12T14:05:53.024Z,5.05
2019-05-12T14:08:16.344Z,3.90
2019-05-12T14:10:46.953Z,2.70
2019-05-12T14:13:11.250Z,3.47
2019-05-12T14:15:38.591Z,3.37
2019-05-12T14:18:04.875Z,3.50
2019-05-12T14:20:31.097Z,3.12
2019-05-12T14:22:57.308Z,2.55
2019-05-12T14:25:29.864Z,2.98
2019-05-12T14:27:53.547Z,2.55
2019-05-12T14:30:19.824Z,2.50
2019-05-12T14:32:49.231Z,2.30
2019-05-12T14:35:14.263Z,2.33
2019-05-12T14:37:45.682Z,2.17
2019-05-12T14:40:09.068Z,2.37
2019-05-12T14:42:39.777Z,2.30
2019-05-12T14:45:05.467Z,2.37
2019-05-12T14:47:31.548Z,2.72
2019-05-12T14:49:57.766Z,2.40
2019-05-12T14:52:23.980Z,2.92
2019-05-12T14:54:50.172Z,2.65
2019-05-12T14:57:16.366Z,2.17
2019-05-12T14:59:42.658Z,2.00
2019-05-12T15:02:08.790Z,2.20
2019-05-12T15:04:34.919Z,2.35
2019-05-12T15:07:08.013Z,2.52
2019-05-12T15:09:29.454Z,4.05
2019-05-12T15:11:55.631Z,6.72
2019-05-12T15:14:24.502Z,2.95
2019-05-12T15:16:49.874Z,2.50
2019-05-12T15:19:20.742Z,2.15
2019-05-12T15:21:44.165Z,2.40
2019-05-12T15:24:17.001Z,2.35
2019-05-12T15:26:38.325Z,2.33
2019-05-12T15:29:12.977Z,2.33
2019-05-12T15:31:33.725Z,2.17
2019-05-12T15:34:00.065Z,2.47
2019-05-12T15:36:26.123Z,2.10
2019-05-12T15:38:55.535Z,2.30
2019-05-12T15:41:20.312Z,2.20
2019-05-12T15:43:48.913Z,2.08
2019-05-12T15:46:16.393Z,2.10
2019-05-12T15:48:44.510Z,2.05
2019-05-12T15:51:10.727Z,2.10
2019-05-12T15:53:36.986Z,2.27
2019-05-12T15:56:05.657Z,2.20
2019-05-12T15:58:31.117Z,2.17
2019-05-12T16:00:58.081Z,2.25
2019-05-12T16:03:26.570Z,1.87
2019-05-12T16:05:53.445Z,1.72
2019-05-12T16:08:19.825Z,1.87
2019-05-12T16:10:46.255Z,1.67
2019-05-12T16:13:15.517Z,1.90
2019-05-12T16:15:40.434Z,1.47
2019-05-12T16:18:09.967Z,1.75
2019-05-12T16:20:34.648Z,2.20
2019-05-12T16:23:00.727Z,1.65
2019-05-12T16:25:30.713Z,1.70
2019-05-12T16:27:55.119Z,1.55
2019-05-12T16:30:25.940Z,1.67
2019-05-12T16:32:49.619Z,1.80
2019-05-12T16:35:20.222Z,1.62
2019-05-12T16:37:44.386Z,1.77
2019-05-12T16:40:13.420Z,1.95
2019-05-12T16:42:40.742Z,3.92
2019-05-12T16:45:10.101Z,1.75
2019-05-12T16:47:35.869Z,1.67
2019-05-12T16:50:08.480Z,1.82
2019-05-12T16:52:40.644Z,1.82
2019-05-12T16:55:03.529Z,1.65
2019-05-12T16:57:29.543Z,1.80
2019-05-12T17:00:02.252Z,1.70
2019-05-12T17:02:37.484Z,1.92
2019-05-12T17:04:53.956Z,1.65
2019-05-12T17:07:20.974Z,1.70
2019-05-12T17:09:47.168Z,1.70
2019-05-12T17:12:14.695Z,1.72
2019-05-12T17:14:47.959Z,1.80
2019-05-12T17:17:10.848Z,1.80
2019-05-12T17:19:37.350Z,1.82
2019-05-12T17:22:04.153Z,1.90
2019-05-12T17:24:30.419Z,1.98
2019-05-12T17:26:56.680Z,1.57
2019-05-12T17:29:24.293Z,2.22
2019-05-12T17:31:50.678Z,2.15
2019-05-12T17:34:16.843Z,1.60
2019-05-12T17:36:44.895Z,1.85
2019-05-12T17:39:11.039Z,1.60
2019-05-12T17:41:42.800Z,1.67
2019-05-12T17:44:05.374Z,1.60
2019-05-12T17:46:32.412Z,1.72
2019-05-12T17:48:59.411Z,1.70
2019-05-12T17:51:29.060Z,1.85
2019-05-12T17:53:54.079Z,1.80
2019-05-12T17:56:25.276Z,1.70
2019-05-12T17:58:48.346Z,1.72
2019-05-12T18:01:14.549Z,1.70
2019-05-12T18:03:48.676Z,1.70
2019-05-12T18:06:08.629Z,1.70
2019-05-12T18:08:36.466Z,1.72
2019-05-12T18:11:03.745Z,1.52
2019-05-12T18:13:30.343Z,1.77
2019-05-12T18:15:56.584Z,1.57
2019-05-12T18:18:32.455Z,1.85
2019-05-12T18:20:50.673Z,1.82
2019-05-12T18:23:19.903Z,2.72
2019-05-12T18:25:44.759Z,6.40
2019-05-12T18:28:10.954Z,9.10
2019-05-12T18:30:37.217Z,13.70
2019-05-12T18:33:07.025Z,14.20
2019-05-12T18:35:32.454Z,5.70
2019-05-12T18:37:58.655Z,4.03
2019-05-12T18:40:28.163Z,3.25
2019-05-12T18:42:54.586Z,2.40
2019-05-12T18:45:23.966Z,2.50
2019-05-12T18:47:50.353Z,2.08
2019-05-12T18:50:20.623Z,2.00
2019-05-12T18:52:46.358Z,2.02
2019-05-12T18:55:14.534Z,1.60
2019-05-12T18:57:47.947Z,1.90
2019-05-12T19:00:19.924Z,1.80
2019-05-12T19:02:46.875Z,2.02
2019-05-12T19:05:22.022Z,1.80
2019-05-12T19:07:43.719Z,1.80
2019-05-12T19:10:09.615Z,1.65
2019-05-12T19:12:36.928Z,1.70
2019-05-12T19:15:10.382Z,2.20
2019-05-12T19:17:34.505Z,1.80
2019-05-12T19:20:01.584Z,1.90
2019-05-12T19:22:27.873Z,2.00
2019-05-12T19:24:58.237Z,1.90
2019-05-12T19:27:23.923Z,1.98
2019-05-12T19:29:49.906Z,1.90
2019-05-12T19:32:16.009Z,2.30
2019-05-12T19:34:43.334Z,1.97
2019-05-12T19:37:10.537Z,1.70
2019-05-12T19:39:36.776Z,1.98
2019-05-12T19:42:03.767Z,1.90
2019-05-12T19:44:30.765Z,1.98
2019-05-12T19:46:57.102Z,1.65
2019-05-12T19:49:26.118Z,1.90
2019-05-12T19:51:51.303Z,2.07
2019-05-12T19:54:19.486Z,1.87
2019-05-12T19:56:45.419Z,2.10
2019-05-12T19:59:11.498Z,1.80
2019-05-12T20:01:37.604Z,1.70
2019-05-12T20:04:03.833Z,1.50
2019-05-12T20:06:30.138Z,1.70
2019-05-12T20:09:06.196Z,1.83
2019-05-12T20:11:29.387Z,1.93
2019-05-12T20:13:53.837Z,2.00
2019-05-12T20:16:21.899Z,1.80
2019-05-12T20:18:49.154Z,2.40
2019-05-12T20:21:15.574Z,2.10
2019-05-12T20:23:43.755Z,2.00
2019-05-12T20:26:09.932Z,1.90
2019-05-12T20:28:36.167Z,2.03
2019-05-12T20:31:05.872Z,2.27
2019-05-12T20:33:31.148Z,2.00
2019-05-12T20:35:57.333Z,1.93
2019-05-12T20:38:25.436Z,2.40
2019-05-12T20:40:53.848Z,2.20
2019-05-12T20:43:24.104Z,2.20
2019-05-12T20:45:47.558Z,2.30
2019-05-12T20:48:14.440Z,2.20
2019-05-12T20:50:40.749Z,1.93
2019-05-12T20:53:06.889Z,2.50
2019-05-12T20:55:39.463Z,2.17
2019-05-12T20:58:00.956Z,2.00
2019-05-12T21:00:27.234Z,2.10
2019-05-12T21:02:53.908Z,1.90
2019-05-12T21:05:20.431Z,2.10
2019-05-12T21:07:46.532Z,2.03
2019-05-12T21:10:14.677Z,2.37
2019-05-12T21:12:46.430Z,2.70
2019-05-12T21:15:16.332Z,2.50
2019-05-12T21:17:42.662Z,2.40
2019-05-12T21:20:11.809Z,2.90
2019-05-12T21:22:34.460Z,2.53
2019-05-12T21:25:00.538Z,2.70
2019-05-12T21:27:26.742Z,2.80
2019-05-12T21:29:54.148Z,2.60
2019-05-12T21:32:20.277Z,2.60
2019-05-12T21:34:46.320Z,2.77
2019-05-12T21:37:14.001Z,2.27
2019-05-12T21:39:45.606Z,2.30
2019-05-12T21:42:08.392Z,1.90
2019-05-12T21:44:34.602Z,2.20
2019-05-12T21:47:07.777Z,2.10
2019-05-12T21:49:28.697Z,2.10
2019-05-12T21:51:58.949Z,1.80
2019-05-12T21:54:29.443Z,2.03
2019-05-12T21:56:54.264Z,2.00
2019-05-12T21:59:20.475Z,1.87
2019-05-12T22:01:46.773Z,2.37
2019-05-12T22:04:14.299Z,1.90
2019-05-12T22:06:40.610Z,2.17
2019-05-12T22:09:07.032Z,2.13
2019-05-12T22:11:34.573Z,2.10
2019-05-12T22:14:00.936Z,2.03
2019-05-12T22:16:29.628Z,2.00
2019-05-12T22:18:59.261Z,2.00
2019-05-12T22:21:23.890Z,1.83
2019-05-12T22:23:51.252Z,2.10
2019-05-12T22:26:18.269Z,1.90
2019-05-12T22:28:48.741Z,1.70
2019-05-12T22:31:13.768Z,1.83
2019-05-12T22:33:40.866Z,1.90
2019-05-12T22:36:20.785Z,2.20
2019-05-12T22:38:37.087Z,1.70
2019-05-12T22:41:04.355Z,2.00
2019-05-12T22:43:40.798Z,2.00
2019-05-12T22:46:00.162Z,1.90
2019-05-12T22:48:29.784Z,1.80
2019-05-12T22:50:55.040Z,1.80
2019-05-12T22:53:25.909Z,1.70
2019-05-12T22:55:49.572Z,1.83
2019-05-12T22:58:21.219Z,1.70
2019-05-12T23:00:45.082Z,1.70
2019-05-12T23:03:12.467Z,1.80
2019-05-12T23:05:39.392Z,2.10
2019-05-12T23:08:06.802Z,2.00
2019-05-12T23:10:33.512Z,2.07
2019-05-12T23:13:01.864Z,2.80
2019-05-12T23:15:27.766Z,1.80
2019-05-12T23:17:53.898Z,2.23
2019-05-12T23:20:20.179Z,1.90
2019-05-12T23:22:46.445Z,1.80
2019-05-12T23:25:19.930Z,1.80
2019-05-12T23:27:40.686Z,1.97
2019-05-12T23:30:10.910Z,1.80
2019-05-12T23:32:35.888Z,1.83
2019-05-12T23:35:05.636Z,1.63
2019-05-12T23:37:38.398Z,1.70
2019-05-12T23:39:59.725Z,1.73
2019-05-12T23:42:25.799Z,1.50
2019-05-12T23:44:51.887Z,1.90
2019-05-12T23:47:18.101Z,1.70
2019-05-12T23:49:44.475Z,1.90
2019-05-12T23:52:10.870Z,2.13
2019-05-12T23:54:37.101Z,1.70
2019-05-12T23:57:03.926Z,1.60
2019-05-12T23:59:30.426Z,1.80
